createdAt,value
2023-05-23T00:02:15.600Z,99.90
2023-05-23T00:04:43.073Z,99.90
2023-05-23T00:07:10.471Z,99.90
2023-05-23T00:09:37.475Z,99.90
2023-05-23T00:12:04.642Z,99.90
2023-05-23T00:14:33.994Z,99.90
2023-05-23T00:17:01.690Z,99.90
2023-05-23T00:19:28.883Z,99.90
2023-05-23T00:21:58.899Z,99.90
2023-05-23T00:24:26.111Z,99.90
2023-05-23T00:26:53.203Z,99.90
2023-05-23T00:29:20.367Z,99.90
2023-05-23T00:31:47.661Z,99.90
2023-05-23T00:34:18.141Z,99.90
2023-05-23T00:36:47.751Z,99.90
2023-05-23T00:39:19.743Z,99.90
2023-05-23T00:41:51.489Z,99.90
2023-05-23T00:44:22.944Z,99.90
2023-05-23T00:46:53.605Z,99.90
2023-05-23T00:49:21.342Z,99.90
2023-05-23T00:51:49.751Z,99.90
2023-05-23T00:54:21.677Z,99.90
2023-05-23T00:56:48.891Z,99.90
2023-05-23T00:59:17.201Z,99.90
2023-05-23T01:01:47.558Z,99.90
2023-05-23T01:04:16.735Z,99.90
2023-05-23T01:06:47.095Z,99.90
2023-05-23T01:09:18.878Z,99.90
2023-05-23T01:12:07.241Z,99.90
2023-05-23T01:14:52.147Z,99.90
2023-05-23T01:17:27.308Z,99.90
2023-05-23T01:20:08.195Z,99.90
2023-05-23T01:23:01.238Z,99.90
2023-05-23T01:25:46.771Z,99.90
2023-05-23T01:28:19.393Z,99.90
2023-05-23T01:30:48.458Z,99.90
2023-05-23T01:33:18.169Z,99.90
2023-05-23T01:35:46.202Z,99.90
2023-05-23T01:38:14.533Z,99.90
2023-05-23T01:40:41.497Z,99.90
2023-05-23T01:43:08.993Z,99.90
2023-05-23T01:45:36.529Z,99.90
2023-05-23T01:48:04.599Z,99.90
2023-05-23T01:50:32.866Z,99.90
2023-05-23T01:53:00.398Z,99.90
2023-05-23T01:55:28.198Z,99.90
2023-05-23T01:57:56.995Z,99.90
2023-05-23T02:00:27.561Z,99.90
2023-05-23T02:02:54.577Z,99.90
2023-05-23T02:05:21.965Z,99.90
2023-05-23T02:07:48.913Z,99.90
2023-05-23T02:10:15.968Z,99.90
2023-05-23T02:12:42.975Z,99.90
2023-05-23T02:15:10.175Z,99.90
2023-05-23T02:17:39.145Z,99.90
2023-05-23T02:20:08.448Z,99.90
2023-05-23T02:22:36.429Z,99.90
2023-05-23T02:25:03.544Z,99.90
2023-05-23T02:27:30.516Z,99.90
2023-05-23T02:29:57.414Z,99.90
2023-05-23T02:32:25.383Z,99.90
2023-05-23T02:34:52.934Z,99.90
2023-05-23T02:37:21.077Z,99.90
2023-05-23T02:39:47.997Z,99.90
2023-05-23T02:42:15.535Z,99.90
2023-05-23T02:44:42.607Z,99.90
2023-05-23T02:47:09.551Z,99.90
2023-05-23T02:49:36.458Z,99.90
2023-05-23T02:52:03.410Z,99.90
2023-05-23T02:54:31.234Z,99.90
2023-05-23T02:56:59.039Z,99.90
2023-05-23T02:59:26.806Z,99.90
2023-05-23T03:01:54.420Z,99.90
2023-05-23T03:04:21.604Z,99.90
2023-05-23T03:06:48.632Z,99.90
2023-05-23T03:09:19.078Z,99.90
2023-05-23T03:11:46.813Z,99.90
2023-05-23T03:14:14.105Z,99.90
2023-05-23T03:16:41.517Z,99.90
2023-05-23T03:19:09.215Z,99.90
2023-05-23T03:21:36.599Z,99.90
2023-05-23T03:24:04.000Z,99.90
2023-05-23T03:26:31.238Z,99.90
2023-05-23T03:28:58.462Z,99.90
2023-05-23T03:31:25.648Z,99.90
2023-05-23T03:33:53.970Z,99.90
2023-05-23T03:36:22.347Z,99.90
2023-05-23T03:38:49.685Z,99.90
2023-05-23T03:41:16.842Z,99.90
2023-05-23T03:43:44.295Z,99.90
2023-05-23T03:46:11.846Z,99.90
2023-05-23T03:48:39.614Z,99.90
2023-05-23T03:51:06.795Z,99.90
2023-05-23T03:53:36.410Z,99.90
2023-05-23T03:56:03.800Z,99.90
2023-05-23T03:58:30.964Z,99.90
2023-05-23T04:00:59.548Z,99.90
2023-05-23T04:03:27.870Z,99.90
2023-05-23T04:05:55.045Z,99.90
2023-05-23T04:08:22.450Z,99.90
2023-05-23T04:10:49.969Z,99.90
2023-05-23T04:13:17.861Z,99.90
2023-05-23T04:15:45.393Z,99.90
2023-05-23T04:18:12.547Z,99.90
2023-05-23T04:20:39.681Z,99.90
2023-05-23T04:23:06.668Z,99.90
2023-05-23T04:25:34.540Z,99.90
2023-05-23T04:28:01.575Z,99.90
2023-05-23T04:30:30.963Z,99.90
2023-05-23T04:33:01.149Z,99.90
2023-05-23T04:35:34.176Z,99.90
2023-05-23T04:38:01.947Z,99.90
2023-05-23T04:40:29.998Z,99.90
2023-05-23T04:42:57.292Z,99.90
2023-05-23T04:45:24.353Z,99.90
2023-05-23T04:47:51.705Z,99.90
2023-05-23T04:50:19.096Z,99.90
2023-05-23T04:52:47.040Z,99.90
2023-05-23T04:55:14.518Z,99.90
2023-05-23T04:57:41.741Z,99.90
2023-05-23T05:00:10.576Z,99.90
2023-05-23T05:02:38.647Z,99.90
2023-05-23T05:05:06.648Z,99.90
2023-05-23T05:07:35.779Z,99.90
2023-05-23T05:10:03.854Z,99.90
2023-05-23T05:12:31.197Z,99.90
2023-05-23T05:14:58.078Z,99.90
2023-05-23T05:17:25.851Z,99.90
2023-05-23T05:19:52.824Z,99.90
2023-05-23T05:22:20.711Z,99.90
2023-05-23T05:24:47.710Z,99.90
2023-05-23T05:27:14.795Z,99.90
2023-05-23T05:29:42.646Z,99.90
2023-05-23T05:34:59.189Z,99.90
2023-05-23T05:37:26.166Z,99.90
2023-05-23T05:39:54.327Z,99.90
2023-05-23T05:42:24.984Z,99.90
2023-05-23T05:44:52.510Z,99.90
2023-05-23T05:47:19.652Z,99.90
2023-05-23T05:49:46.612Z,99.90
2023-05-23T05:52:14.721Z,99.90
2023-05-23T05:54:41.673Z,99.90
2023-05-23T05:57:08.604Z,99.90
2023-05-23T05:59:36.595Z,99.90
2023-05-23T06:02:03.558Z,99.90
2023-05-23T06:04:31.069Z,99.90
2023-05-23T06:06:58.333Z,99.90
2023-05-23T06:09:26.098Z,99.90
2023-05-23T06:11:53.436Z,99.90
2023-05-23T06:14:20.354Z,99.90
2023-05-23T06:16:47.704Z,99.90
2023-05-23T06:19:14.750Z,99.90
2023-05-23T06:21:42.084Z,99.90
2023-05-23T06:24:08.943Z,99.90
2023-05-23T06:26:37.708Z,99.90
2023-05-23T06:29:04.823Z,99.90
2023-05-23T06:31:32.086Z,99.90
2023-05-23T06:33:59.060Z,99.90
2023-05-23T06:36:26.618Z,99.90
2023-05-23T06:38:53.544Z,99.90
2023-05-23T06:41:20.548Z,99.90
2023-05-23T06:43:47.448Z,99.90
2023-05-23T06:46:14.360Z,99.90
2023-05-23T06:48:41.330Z,99.90
2023-05-23T06:51:08.340Z,99.90
2023-05-23T06:53:35.445Z,99.90
2023-05-23T06:56:02.525Z,99.90
2023-05-23T06:58:30.234Z,99.90
2023-05-23T07:00:57.230Z,99.90
2023-05-23T07:03:24.125Z,99.90
2023-05-23T07:05:51.815Z,99.90
2023-05-23T07:08:18.954Z,99.90
2023-05-23T07:10:47.208Z,99.90
2023-05-23T07:13:14.190Z,99.90
2023-05-23T07:15:41.189Z,99.90
2023-05-23T07:18:08.251Z,99.90
2023-05-23T07:20:35.771Z,99.90
2023-05-23T07:23:02.671Z,99.90
2023-05-23T07:25:29.572Z,99.90
2023-05-23T07:27:56.789Z,99.90
2023-05-23T07:30:24.101Z,99.90
2023-05-23T07:32:52.499Z,99.90
2023-05-23T07:35:24.044Z,99.90
2023-05-23T07:37:51.321Z,99.90
2023-05-23T07:40:18.289Z,99.90
2023-05-23T07:42:46.113Z,99.90
2023-05-23T07:45:13.086Z,99.90
2023-05-23T07:47:40.067Z,99.90
2023-05-23T07:50:07.794Z,99.90
2023-05-23T07:52:35.342Z,99.90
2023-05-23T07:55:02.581Z,99.90
2023-05-23T07:57:29.696Z,99.90
2023-05-23T07:59:56.859Z,99.90
2023-05-23T08:02:23.858Z,99.90
2023-05-23T08:04:51.291Z,99.90
2023-05-23T08:07:19.593Z,99.90
2023-05-23T08:09:46.692Z,99.90
2023-05-23T08:12:13.593Z,99.90
2023-05-23T08:14:50.522Z,99.90
2023-05-23T08:17:19.102Z,99.90
2023-05-23T08:19:46.252Z,99.90
2023-05-23T08:22:13.199Z,99.90
2023-05-23T08:24:40.122Z,99.90
2023-05-23T08:27:08.148Z,99.90
2023-05-23T08:29:38.719Z,99.90
2023-05-23T08:32:05.808Z,99.90
2023-05-23T08:34:33.124Z,99.90
2023-05-23T08:37:00.192Z,99.90
2023-05-23T08:39:27.179Z,99.90
2023-05-23T08:41:54.400Z,99.90
2023-05-23T08:44:21.366Z,99.90
2023-05-23T08:46:49.915Z,99.90
2023-05-23T08:49:18.476Z,99.90
2023-05-23T08:51:47.071Z,99.90
2023-05-23T08:54:14.372Z,99.90
2023-05-23T08:56:43.853Z,99.90
2023-05-23T08:59:13.096Z,99.90
2023-05-23T09:01:42.392Z,99.90
2023-05-23T09:04:11.291Z,99.90
2023-05-23T09:06:38.426Z,99.90
2023-05-23T09:09:05.682Z,99.90
2023-05-23T09:11:36.049Z,99.90
2023-05-23T09:14:05.156Z,99.90
2023-05-23T09:16:35.863Z,99.90
2023-05-23T09:19:14.745Z,99.90
2023-05-23T09:21:45.930Z,99.90
2023-05-23T09:24:13.074Z,99.90
2023-05-23T09:26:40.120Z,99.90
2023-05-23T09:29:07.914Z,99.90
2023-05-23T09:31:35.431Z,99.90
2023-05-23T09:34:02.694Z,99.90
2023-05-23T09:36:35.281Z,99.90
2023-05-23T09:39:05.860Z,99.90
2023-05-23T09:41:35.881Z,99.90
2023-05-23T09:44:09.023Z,99.90
2023-05-23T09:46:38.537Z,99.90
2023-05-23T09:49:17.585Z,99.90
2023-05-23T09:51:44.976Z,99.90
2023-05-23T09:54:11.910Z,99.90
2023-05-23T09:56:43.743Z,99.90
2023-05-23T09:59:13.775Z,99.90
2023-05-23T10:01:45.079Z,99.90
2023-05-23T10:04:14.716Z,99.90
2023-05-23T10:06:49.141Z,99.90
2023-05-23T10:09:19.173Z,99.90
2023-05-23T10:12:24.003Z,99.90
2023-05-23T10:14:58.966Z,99.90
2023-05-23T10:17:48.830Z,99.90
2023-05-23T10:20:17.847Z,99.90
2023-05-23T10:22:44.960Z,99.90
2023-05-23T10:25:12.457Z,99.90
2023-05-23T10:27:40.093Z,99.90
2023-05-23T10:30:08.914Z,99.90
2023-05-23T10:32:38.662Z,99.90
2023-05-23T10:35:28.651Z,99.90
2023-05-23T10:38:28.530Z,99.90
2023-05-23T10:41:21.909Z,99.90
2023-05-23T10:44:07.172Z,99.90
2023-05-23T10:46:58.954Z,99.90
2023-05-23T10:49:45.133Z,99.90
2023-05-23T10:52:14.249Z,99.90
2023-05-23T10:54:54.159Z,99.90
2023-05-23T10:57:27.016Z,99.90
2023-05-23T10:59:54.144Z,99.90
2023-05-23T11:02:27.869Z,99.90
2023-05-23T11:05:24.458Z,99.90
2023-05-23T11:08:09.248Z,99.90
2023-05-23T11:11:02.247Z,99.90
2023-05-23T11:13:55.321Z,99.90
2023-05-23T11:16:25.715Z,99.90
2023-05-23T11:18:53.166Z,99.90
2023-05-23T11:21:21.946Z,99.90
2023-05-23T11:23:55.433Z,99.90
2023-05-23T11:26:32.572Z,99.90
2023-05-23T11:29:00.856Z,97.90
2023-05-23T11:31:27.966Z,98.50
2023-05-23T11:33:55.934Z,97.30
2023-05-23T11:36:23.108Z,93.60
2023-05-23T11:38:53.983Z,94.90
2023-05-23T11:41:21.915Z,92.90
2023-05-23T11:43:52.886Z,91.10
2023-05-23T11:46:20.161Z,90.60
2023-05-23T11:48:47.874Z,90.80
2023-05-23T11:51:16.278Z,90.60
2023-05-23T11:53:43.276Z,90.90
2023-05-23T11:56:10.260Z,92.20
2023-05-23T11:58:39.560Z,90.90
2023-05-23T12:01:08.473Z,91.80
2023-05-23T12:03:45.182Z,90.10
2023-05-23T12:06:15.082Z,89.00
2023-05-23T12:08:42.710Z,79.10
2023-05-23T12:11:10.168Z,76.10
2023-05-23T12:13:37.347Z,70.10
2023-05-23T12:16:04.859Z,78.90
2023-05-23T12:18:34.108Z,71.90
2023-05-23T12:21:06.253Z,69.50
2023-05-23T12:23:35.253Z,68.00
2023-05-23T12:26:10.326Z,68.70
2023-05-23T12:28:40.373Z,60.50
2023-05-23T12:31:12.372Z,61.40
2023-05-23T12:33:44.502Z,58.90
2023-05-23T12:36:15.797Z,57.30
2023-05-23T12:38:45.916Z,54.70
2023-05-23T12:41:16.595Z,51.10
2023-05-23T12:43:52.829Z,50.70
2023-05-23T12:46:21.261Z,54.50
2023-05-23T12:48:48.355Z,57.90
2023-05-23T12:51:16.836Z,53.60
2023-05-23T12:53:44.755Z,54.60
2023-05-23T12:56:12.379Z,52.70
2023-05-23T12:58:39.901Z,53.10
2023-05-23T13:01:06.886Z,50.20
2023-05-23T13:03:33.907Z,47.20
2023-05-23T13:06:00.904Z,44.30
2023-05-23T13:08:28.233Z,47.00
2023-05-23T13:10:55.440Z,39.00
2023-05-23T13:13:22.708Z,41.20
2023-05-23T13:15:51.072Z,41.90
2023-05-23T13:18:18.666Z,40.50
2023-05-23T13:20:46.648Z,46.10
2023-05-23T13:23:13.875Z,46.30
2023-05-23T13:25:41.215Z,46.70
2023-05-23T13:28:08.400Z,50.50
2023-05-23T13:30:35.346Z,47.40
2023-05-23T13:33:02.573Z,46.80
2023-05-23T13:35:29.571Z,43.00
2023-05-23T13:37:56.494Z,46.70
2023-05-23T13:40:23.886Z,46.80
2023-05-23T13:42:51.912Z,46.90
2023-05-23T13:45:20.273Z,42.80
2023-05-23T13:47:47.753Z,41.40
2023-05-23T13:50:14.932Z,40.70
2023-05-23T13:52:44.778Z,43.60
2023-05-23T13:55:13.282Z,45.10
2023-05-23T13:57:40.362Z,51.10
2023-05-23T14:00:08.948Z,41.80
2023-05-23T14:02:36.200Z,41.30
2023-05-23T14:05:03.863Z,43.20
2023-05-23T14:07:33.058Z,45.30
2023-05-23T14:10:00.093Z,39.60
2023-05-23T14:12:27.396Z,40.60
2023-05-23T14:14:54.403Z,38.10
2023-05-23T14:17:21.723Z,34.40
2023-05-23T14:19:49.007Z,37.20
2023-05-23T14:22:16.231Z,37.50
2023-05-23T14:24:43.286Z,41.20
2023-05-23T14:27:11.262Z,42.10
2023-05-23T14:29:39.302Z,43.40
2023-05-23T14:32:06.789Z,42.70
2023-05-23T14:34:34.186Z,41.00
2023-05-23T14:37:01.409Z,41.00
2023-05-23T14:39:29.364Z,44.40
2023-05-23T14:41:56.527Z,45.30
2023-05-23T14:44:23.542Z,43.10
2023-05-23T14:46:50.773Z,46.80
2023-05-23T14:49:18.143Z,41.20
2023-05-23T14:51:51.416Z,41.50
2023-05-23T14:54:19.885Z,45.20
2023-05-23T14:56:47.111Z,42.10
2023-05-23T14:59:14.345Z,42.10
2023-05-23T15:01:41.862Z,41.50
2023-05-23T15:04:10.127Z,45.20
2023-05-23T15:06:39.209Z,48.80
2023-05-23T15:09:07.519Z,48.90
2023-05-23T15:11:35.215Z,47.60
2023-05-23T15:14:02.690Z,46.40
2023-05-23T15:16:33.058Z,45.90
2023-05-23T15:19:01.089Z,45.90
2023-05-23T15:21:29.118Z,46.00
2023-05-23T15:23:56.239Z,39.90
2023-05-23T15:26:23.919Z,41.20
2023-05-23T15:28:51.302Z,42.10
2023-05-23T15:31:18.571Z,39.30
2023-05-23T15:33:45.572Z,38.80
2023-05-23T15:36:13.429Z,38.30
2023-05-23T15:38:40.851Z,39.80
2023-05-23T15:41:07.769Z,40.00
2023-05-23T15:43:37.960Z,43.90
2023-05-23T15:46:05.571Z,44.90
2023-05-23T15:48:32.696Z,42.90
2023-05-23T15:50:59.640Z,42.20
2023-05-23T15:53:26.556Z,40.50
2023-05-23T15:55:53.571Z,44.20
2023-05-23T15:58:20.516Z,45.90
2023-05-23T16:00:47.559Z,47.90
2023-05-23T16:03:14.582Z,47.90
2023-05-23T16:05:41.824Z,44.90
2023-05-23T16:08:08.963Z,53.90
2023-05-23T16:10:35.962Z,52.40
2023-05-23T16:13:03.045Z,46.80
2023-05-23T16:15:29.998Z,50.60
2023-05-23T16:17:56.993Z,55.60
2023-05-23T16:20:24.148Z,53.40
2023-05-23T16:22:51.298Z,52.70
2023-05-23T16:25:18.244Z,49.20
2023-05-23T16:27:45.339Z,42.10
2023-05-23T16:30:12.469Z,38.70
2023-05-23T16:32:39.398Z,41.90
2023-05-23T16:35:07.350Z,39.50
2023-05-23T16:37:34.310Z,36.70
2023-05-23T16:40:01.612Z,37.20
2023-05-23T16:42:28.599Z,41.70
2023-05-23T16:44:56.993Z,39.60
2023-05-23T16:47:24.388Z,39.70
2023-05-23T16:49:51.456Z,42.10
2023-05-23T16:52:18.819Z,39.40
2023-05-23T16:58:38.625Z,43.30
2023-05-23T17:01:07.092Z,42.60
2023-05-23T17:03:34.210Z,40.60
2023-05-23T17:06:02.027Z,37.20
2023-05-23T17:08:29.257Z,37.20
2023-05-23T17:10:56.905Z,36.90
2023-05-23T17:13:23.903Z,40.00
2023-05-23T17:15:51.099Z,40.50
2023-05-23T17:18:18.129Z,38.30
2023-05-23T17:20:45.349Z,38.60
2023-05-23T17:23:12.590Z,38.80
2023-05-23T17:25:39.908Z,44.00
2023-05-23T17:28:07.222Z,44.50
2023-05-23T17:30:34.239Z,45.00
2023-05-23T17:33:01.347Z,42.70
2023-05-23T17:35:28.506Z,37.50
2023-05-23T17:37:58.366Z,39.00
2023-05-23T17:40:26.664Z,41.40
2023-05-23T17:42:53.568Z,42.20
2023-05-23T17:45:22.201Z,43.00
2023-05-23T17:47:49.227Z,47.40
2023-05-23T17:50:16.343Z,49.00
2023-05-23T17:52:44.799Z,50.00
2023-05-23T17:55:12.161Z,51.50
2023-05-23T17:57:39.099Z,52.20
2023-05-23T18:00:07.365Z,56.10
2023-05-23T18:02:34.322Z,55.60
2023-05-23T18:05:02.381Z,55.20
2023-05-23T18:07:32.496Z,56.50
2023-05-23T18:10:00.152Z,56.80
2023-05-23T18:12:27.231Z,55.10
2023-05-23T18:14:54.455Z,52.70
2023-05-23T18:17:21.762Z,53.70
2023-05-23T18:19:48.889Z,54.90
2023-05-23T18:22:16.719Z,56.90
2023-05-23T18:24:44.050Z,56.30
2023-05-23T18:27:11.127Z,54.90
2023-05-23T18:29:39.035Z,55.60
2023-05-23T18:32:07.323Z,56.70
2023-05-23T18:34:34.477Z,57.90
2023-05-23T18:37:03.384Z,59.80
2023-05-23T18:39:31.443Z,59.80
2023-05-23T18:41:59.035Z,59.50
2023-05-23T18:44:26.130Z,61.90
2023-05-23T18:46:53.121Z,60.80
2023-05-23T18:49:20.243Z,64.40
2023-05-23T18:51:47.762Z,66.60
2023-05-23T18:54:14.922Z,65.10
2023-05-23T18:56:42.034Z,66.50
2023-05-23T18:59:13.574Z,69.60
2023-05-23T19:01:40.897Z,70.40
2023-05-23T19:04:08.429Z,75.20
2023-05-23T19:06:35.476Z,75.70
2023-05-23T19:09:03.021Z,77.90
2023-05-23T19:11:30.035Z,80.30
2023-05-23T19:13:57.581Z,84.00
2023-05-23T19:16:24.600Z,85.10
2023-05-23T19:18:51.799Z,88.50
2023-05-23T19:21:18.872Z,89.10
2023-05-23T19:23:45.919Z,90.60
2023-05-23T19:26:13.885Z,91.90
2023-05-23T19:28:41.221Z,91.50
2023-05-23T19:31:08.184Z,93.20
2023-05-23T19:33:36.336Z,93.60
2023-05-23T19:36:03.907Z,93.90
2023-05-23T19:38:30.828Z,95.10
2023-05-23T19:40:58.071Z,94.60
2023-05-23T19:43:25.148Z,95.00
2023-05-23T19:45:52.112Z,95.90
2023-05-23T19:48:19.161Z,96.10
2023-05-23T19:50:47.480Z,96.30
2023-05-23T19:53:14.895Z,97.40
2023-05-23T19:55:42.804Z,98.10
2023-05-23T19:58:10.076Z,98.50
2023-05-23T20:00:37.265Z,98.60
2023-05-23T20:03:04.462Z,99.90
2023-05-23T20:05:32.232Z,99.90
2023-05-23T20:08:01.157Z,99.90
2023-05-23T20:10:28.131Z,99.90
2023-05-23T20:12:55.050Z,99.90
2023-05-23T20:15:38.138Z,99.90
2023-05-23T20:18:07.352Z,99.90
2023-05-23T20:20:34.747Z,99.90
2023-05-23T20:23:01.790Z,99.90
2023-05-23T20:25:28.789Z,99.90
2023-05-23T20:27:58.782Z,99.90
2023-05-23T20:30:26.365Z,99.90
2023-05-23T20:32:54.627Z,99.90
2023-05-23T20:35:22.528Z,99.90
2023-05-23T20:37:51.888Z,99.90
2023-05-23T20:40:19.287Z,99.90
2023-05-23T20:42:46.611Z,99.90
2023-05-23T20:45:14.223Z,99.90
2023-05-23T20:47:42.126Z,99.90
2023-05-23T20:50:10.646Z,99.90
2023-05-23T20:52:41.298Z,99.90
2023-05-23T20:55:08.952Z,99.90
2023-05-23T20:57:37.180Z,99.90
2023-05-23T21:00:11.223Z,99.90
2023-05-23T21:02:41.663Z,99.90
2023-05-23T21:05:10.113Z,99.90
2023-05-23T21:07:37.755Z,99.90
2023-05-23T21:10:05.465Z,99.90
2023-05-23T21:12:32.346Z,99.90
2023-05-23T21:14:59.752Z,99.90
2023-05-23T21:17:26.858Z,99.90
2023-05-23T21:19:53.808Z,99.90
2023-05-23T21:22:20.896Z,99.90
2023-05-23T21:24:47.919Z,99.90
2023-05-23T21:27:15.140Z,99.90
2023-05-23T21:29:42.653Z,99.90
2023-05-23T21:32:10.027Z,99.90
2023-05-23T21:34:37.308Z,99.90
2023-05-23T21:37:04.532Z,99.90
2023-05-23T21:39:46.920Z,99.90
2023-05-23T21:42:17.596Z,99.90
2023-05-23T21:44:45.393Z,99.90
2023-05-23T21:47:12.714Z,99.90
2023-05-23T21:49:40.422Z,99.90
2023-05-23T21:52:07.444Z,99.90
2023-05-23T21:54:34.657Z,99.90
2023-05-23T21:57:01.792Z,99.90
2023-05-23T21:59:28.836Z,99.90
2023-05-23T22:01:56.597Z,99.90
2023-05-23T22:04:23.652Z,99.90
2023-05-23T22:06:51.512Z,99.90
2023-05-23T22:09:19.072Z,99.90
2023-05-23T22:11:46.163Z,99.90
2023-05-23T22:14:13.208Z,99.90
2023-05-23T22:16:40.463Z,99.90
2023-05-23T22:19:10.162Z,99.90
2023-05-23T22:21:37.530Z,99.90
2023-05-23T22:24:04.896Z,99.90
2023-05-23T22:26:32.530Z,99.90
2023-05-23T22:28:59.535Z,99.90
2023-05-23T22:31:28.841Z,99.90
2023-05-23T22:33:56.163Z,99.90
2023-05-23T22:36:23.456Z,99.90
2023-05-23T22:38:51.105Z,99.90
2023-05-23T22:41:18.830Z,99.90
2023-05-23T22:43:46.963Z,99.90
2023-05-23T22:46:14.292Z,99.90
2023-05-23T22:48:41.582Z,99.90
2023-05-23T22:51:09.733Z,99.90
2023-05-23T22:53:37.141Z,99.90
2023-05-23T22:56:04.217Z,99.90
2023-05-23T22:58:31.330Z,99.90
2023-05-23T23:00:58.283Z,99.90
2023-05-23T23:03:25.279Z,99.90
2023-05-23T23:05:52.223Z,99.90
2023-05-23T23:08:19.555Z,99.90
2023-05-23T23:10:46.994Z,99.90
2023-05-23T23:13:14.234Z,99.90
2023-05-23T23:15:43.126Z,99.90
2023-05-23T23:18:13.707Z,99.90
2023-05-23T23:20:41.535Z,99.90
2023-05-23T23:23:08.792Z,99.90
2023-05-23T23:25:36.700Z,99.90
2023-05-23T23:28:03.934Z,99.90
2023-05-23T23:30:30.974Z,99.90
2023-05-23T23:32:58.277Z,99.90
2023-05-23T23:35:25.314Z,99.90
2023-05-23T23:37:52.309Z,99.90
2023-05-23T23:40:19.562Z,99.90
2023-05-23T23:42:46.478Z,99.90
2023-05-23T23:45:13.640Z,99.90
2023-05-23T23:47:41.790Z,99.90
2023-05-23T23:50:09.006Z,99.90
2023-05-23T23:52:39.257Z,99.90
2023-05-23T23:55:06.925Z,99.90
2023-05-23T23:57:34.224Z,99.90
